Terminal Aerodrome Forecast
Issued by NWS

Home | Current Version | Previous Version | Text Only | Print | Product List | Glossary Off
Versions: 1 2 3 4 5 6 7 8 9 10 11 12 13 14 15 16 17 18 19 20 21 22 23 24 25

124
FTUS43 KPAH 190520
TAFCGI
TAF
KCGI 190520Z 1906/2006 19012G20KT P6SM OVC015
     FM190800 19014G22KT 4SM -SHRA BR SCT009 OVC015
      TEMPO 1908/1910 2SM SHRA BR OVC009
     FM191300 19015G25KT P6SM BKN015
     FM191600 20017G29KT P6SM BKN030
     FM200000 18013G20KT P6SM BKN035=

USA.gov is the U.S. government's official web portal to all federal, state and local government web resources and services.